createdAt,value
2019-05-23T00:00:50.830Z,11.94
2019-05-23T00:06:34.763Z,11.87
2019-05-23T00:12:34.985Z,11.82
2019-05-23T00:18:04.886Z,11.79
2019-05-23T00:23:28.852Z,11.77
2019-05-23T00:29:09.027Z,11.73
2019-05-23T00:34:21.818Z,11.60
2019-05-23T00:39:47.006Z,11.55
2019-05-23T00:45:12.596Z,11.52
2019-05-23T00:50:37.111Z,11.46
2019-05-23T00:56:02.647Z,11.43
2019-05-23T01:01:27.071Z,11.38
2019-05-23T01:06:50.887Z,11.39
2019-05-23T01:12:15.947Z,11.40
2019-05-23T01:17:40.757Z,11.46
2019-05-23T01:23:07.489Z,11.44
2019-05-23T01:28:32.086Z,11.42
2019-05-23T01:33:59.029Z,11.43
2019-05-23T01:39:23.386Z,11.40
2019-05-23T01:44:48.472Z,11.37
2019-05-23T01:50:14.131Z,11.38
2019-05-23T01:55:38.260Z,11.35
2019-05-23T02:01:02.442Z,11.29
2019-05-23T02:06:27.194Z,11.26
2019-05-23T02:11:52.265Z,11.21
2019-05-23T02:17:17.172Z,11.17
2019-05-23T02:22:42.421Z,11.14
2019-05-23T02:28:08.395Z,11.08
2019-05-23T02:33:33.597Z,11.02
2019-05-23T02:39:15.774Z,10.95
2019-05-23T02:44:39.577Z,10.92
2019-05-23T02:50:06.987Z,10.86
2019-05-23T02:55:36.036Z,10.81
2019-05-23T03:01:22.887Z,10.75
2019-05-23T03:06:48.042Z,10.67
2019-05-23T03:12:15.328Z,10.63
2019-05-23T03:17:43.071Z,10.61
2019-05-23T03:23:13.600Z,10.59
2019-05-23T03:28:40.757Z,10.57
2019-05-23T03:34:07.220Z,10.56
2019-05-23T03:39:32.137Z,10.46
2019-05-23T03:44:57.410Z,10.42
2019-05-23T03:50:21.724Z,10.40
2019-05-23T03:55:50.001Z,10.35
2019-05-23T04:01:15.823Z,10.33
2019-05-23T04:06:39.750Z,10.35
2019-05-23T04:12:04.277Z,10.32
2019-05-23T04:17:29.024Z,10.16
2019-05-23T04:22:54.749Z,10.03
2019-05-23T04:28:19.452Z,9.90
2019-05-23T04:33:43.567Z,9.80
2019-05-23T04:39:08.494Z,9.71
2019-05-23T04:44:33.107Z,9.61
2019-05-23T04:49:57.660Z,9.51
2019-05-23T04:55:23.473Z,9.42
2019-05-23T05:00:48.574Z,9.31
2019-05-23T05:06:12.481Z,9.23
2019-05-23T05:11:36.768Z,9.60
2019-05-23T05:17:01.953Z,9.44
2019-05-23T05:22:26.492Z,10.02
2019-05-23T05:27:51.241Z,11.77
2019-05-23T05:33:16.649Z,13.19
2019-05-23T05:38:40.905Z,14.73
2019-05-23T05:44:05.698Z,15.36
2019-05-23T05:49:29.927Z,15.78
2019-05-23T05:54:54.063Z,16.13
2019-05-23T06:00:32.641Z,17.41
2019-05-23T06:06:21.966Z,17.81
2019-05-23T06:11:47.001Z,18.02
2019-05-23T06:17:14.290Z,18.35
2019-05-23T06:22:38.803Z,18.48
2019-05-23T06:28:03.090Z,18.39
2019-05-23T06:33:28.442Z,18.04
2019-05-23T06:38:55.164Z,18.91
2019-05-23T06:44:19.880Z,19.18
2019-05-23T06:49:43.539Z,18.08
2019-05-23T06:55:08.325Z,18.69
2019-05-23T07:00:32.754Z,18.21
2019-05-23T07:05:58.589Z,19.45
2019-05-23T07:11:23.973Z,20.09
2019-05-23T07:16:50.202Z,20.68
2019-05-23T07:22:13.424Z,19.93
2019-05-23T07:27:38.639Z,18.63
2019-05-23T07:33:03.399Z,17.81
2019-05-23T07:38:27.494Z,18.12
2019-05-23T07:43:51.918Z,19.29
2019-05-23T07:49:16.544Z,18.41
2019-05-23T07:54:46.258Z,18.37
2019-05-23T08:00:18.244Z,18.21
2019-05-23T08:05:41.770Z,18.93
2019-05-23T08:11:05.602Z,19.73
2019-05-23T08:16:29.475Z,20.62
2019-05-23T08:21:53.468Z,21.87
2019-05-23T08:27:18.007Z,20.99
2019-05-23T08:32:43.839Z,19.41
2019-05-23T08:38:07.976Z,21.05
2019-05-23T08:43:32.834Z,22.28
2019-05-23T08:48:56.861Z,19.34
2019-05-23T08:54:21.793Z,20.78
2019-05-23T08:59:46.111Z,19.54
2019-05-23T09:05:11.613Z,19.54
2019-05-23T09:10:37.485Z,19.40
2019-05-23T09:16:02.456Z,20.64
2019-05-23T09:21:26.560Z,19.50
2019-05-23T09:26:52.130Z,20.12
2019-05-23T09:32:16.003Z,19.10
2019-05-23T09:37:41.078Z,19.89
2019-05-23T09:43:06.323Z,20.19
2019-05-23T09:48:30.582Z,21.62
2019-05-23T09:53:55.211Z,23.78
2019-05-23T09:59:19.713Z,23.59
2019-05-23T10:04:44.193Z,23.74
2019-05-23T10:10:10.582Z,22.92
2019-05-23T10:15:45.119Z,23.43
2019-05-23T10:21:09.420Z,24.63
2019-05-23T10:26:33.213Z,24.69
2019-05-23T10:31:57.636Z,22.12
2019-05-23T10:37:22.337Z,24.19
2019-05-23T10:42:48.150Z,24.74
2019-05-23T10:48:12.738Z,24.58
2019-05-23T10:53:37.928Z,24.53
2019-05-23T10:59:02.077Z,24.45
2019-05-23T11:04:25.494Z,25.00
2019-05-23T11:09:50.395Z,22.59
2019-05-23T11:15:16.785Z,22.71
2019-05-23T11:20:41.998Z,23.17
2019-05-23T11:26:09.274Z,22.31
2019-05-23T11:31:34.044Z,21.44
2019-05-23T11:36:58.724Z,23.64
2019-05-23T11:42:23.290Z,23.76
2019-05-23T11:47:48.061Z,22.82
2019-05-23T11:53:11.756Z,23.39
2019-05-23T11:58:37.091Z,24.50
2019-05-23T12:04:14.380Z,22.98
2019-05-23T12:09:39.608Z,24.79
2019-05-23T12:15:06.611Z,25.27
2019-05-23T12:20:30.386Z,24.93
2019-05-23T12:25:55.075Z,24.27
2019-05-23T12:31:19.358Z,24.08
2019-05-23T12:36:43.465Z,23.29
2019-05-23T12:42:07.994Z,22.68
2019-05-23T12:47:45.663Z,24.71
2019-05-23T12:53:12.590Z,24.91
2019-05-23T12:58:37.400Z,25.04
2019-05-23T13:04:02.232Z,25.10
2019-05-23T13:09:28.306Z,25.49
2019-05-23T13:14:58.167Z,24.87
2019-05-23T13:20:18.997Z,25.78
2019-05-23T13:25:43.503Z,26.44
2019-05-23T13:31:08.113Z,27.01
2019-05-23T13:36:31.996Z,27.59
2019-05-23T13:41:55.979Z,28.34
2019-05-23T13:47:20.510Z,28.62
2019-05-23T13:52:44.681Z,28.03
2019-05-23T13:58:08.526Z,26.37
2019-05-23T14:03:34.038Z,24.48
2019-05-23T14:08:58.496Z,24.22
2019-05-23T14:14:23.438Z,25.51
2019-05-23T14:19:50.028Z,24.63
2019-05-23T14:25:15.690Z,24.98
2019-05-23T14:30:58.062Z,25.51
2019-05-23T14:36:40.519Z,25.81
2019-05-23T14:42:10.468Z,26.47
2019-05-23T14:47:51.415Z,26.17
2019-05-23T14:53:18.445Z,26.26
2019-05-23T14:58:43.262Z,25.21
2019-05-23T15:04:07.983Z,25.43
2019-05-23T15:09:32.306Z,25.80
2019-05-23T15:14:56.051Z,26.71
2019-05-23T15:20:20.006Z,25.86
2019-05-23T15:25:43.833Z,23.61
2019-05-23T15:31:08.623Z,25.26
2019-05-23T15:36:33.278Z,26.39
2019-05-23T15:41:58.967Z,25.40
2019-05-23T15:47:26.085Z,24.52
2019-05-23T15:53:01.539Z,25.16
2019-05-23T15:58:37.645Z,25.35
2019-05-23T16:04:05.716Z,24.93
2019-05-23T16:09:31.141Z,25.38
2019-05-23T16:14:55.090Z,25.24
2019-05-23T16:20:20.028Z,24.66
2019-05-23T16:25:43.749Z,24.66
2019-05-23T16:31:08.531Z,23.77
2019-05-23T16:36:32.567Z,23.53
2019-05-23T16:41:56.587Z,22.95
2019-05-23T16:47:20.433Z,22.17
2019-05-23T16:52:44.709Z,22.71
2019-05-23T16:58:18.409Z,23.04
2019-05-23T17:03:57.609Z,22.98
2019-05-23T17:09:38.895Z,21.68
2019-05-23T17:15:08.850Z,21.38
2019-05-23T17:20:50.746Z,20.92
2019-05-23T17:26:23.974Z,20.59
2019-05-23T17:31:49.652Z,20.55
2019-05-23T17:37:13.883Z,20.33
2019-05-23T17:42:38.054Z,20.07
2019-05-23T17:48:03.553Z,19.68
2019-05-23T17:53:28.272Z,19.32
2019-05-23T17:58:53.113Z,19.15
2019-05-23T18:04:18.562Z,18.83
2019-05-23T18:09:42.442Z,18.55
2019-05-23T18:15:10.080Z,18.31
2019-05-23T18:20:35.596Z,18.07
2019-05-23T18:26:00.261Z,17.79
2019-05-23T18:31:27.822Z,17.54
2019-05-23T18:36:52.337Z,17.27
2019-05-23T18:42:16.710Z,17.05
2019-05-23T18:47:43.934Z,16.82
2019-05-23T18:53:09.774Z,16.64
2019-05-23T18:58:34.159Z,16.38
2019-05-23T19:03:59.065Z,16.02
2019-05-23T19:09:23.989Z,15.67
2019-05-23T19:14:47.675Z,15.39
2019-05-23T19:20:13.736Z,15.08
2019-05-23T19:25:38.642Z,14.92
2019-05-23T19:31:04.053Z,14.86
2019-05-23T19:36:28.430Z,14.78
2019-05-23T19:41:52.496Z,14.79
2019-05-23T19:47:17.535Z,14.79
2019-05-23T19:52:41.445Z,14.76
2019-05-23T19:58:06.217Z,14.73
2019-05-23T20:03:32.806Z,14.62
2019-05-23T20:08:57.622Z,14.52
2019-05-23T20:14:22.422Z,14.32
2019-05-23T20:19:50.310Z,14.22
2019-05-23T20:25:13.900Z,14.09
2019-05-23T20:30:59.511Z,13.82
2019-05-23T20:36:23.738Z,13.59
2019-05-23T20:41:48.268Z,13.56
2019-05-23T20:47:13.880Z,13.39
2019-05-23T20:52:37.949Z,13.16
2019-05-23T20:58:02.710Z,12.97
2019-05-23T21:03:28.258Z,12.72
2019-05-23T21:08:51.894Z,12.61
2019-05-23T21:14:16.719Z,12.50
2019-05-23T21:19:40.809Z,12.38
2019-05-23T21:25:05.513Z,12.14
2019-05-23T21:30:30.415Z,11.91
2019-05-23T21:35:55.105Z,11.76
2019-05-23T21:41:18.745Z,11.72
2019-05-23T21:46:43.563Z,11.61
2019-05-23T21:52:08.342Z,11.45
2019-05-23T21:57:32.999Z,11.53
2019-05-23T22:02:58.935Z,11.43
2019-05-23T22:08:22.912Z,11.18
2019-05-23T22:13:47.061Z,10.96
2019-05-23T22:19:15.302Z,10.87
2019-05-23T22:24:39.250Z,10.74
2019-05-23T22:30:05.222Z,10.66
2019-05-23T22:35:29.895Z,10.57
2019-05-23T22:40:54.444Z,10.46
2019-05-23T22:46:20.911Z,10.35
2019-05-23T22:51:45.567Z,10.18
2019-05-23T22:57:10.206Z,10.13
2019-05-23T23:02:34.216Z,10.10
2019-05-23T23:07:59.087Z,9.84
2019-05-23T23:13:37.635Z,9.65
2019-05-23T23:18:49.533Z,9.57
2019-05-23T23:24:13.546Z,9.64
2019-05-23T23:29:37.761Z,9.60
2019-05-23T23:35:01.899Z,9.47
2019-05-23T23:40:25.621Z,9.49
2019-05-23T23:46:08.582Z,9.46
2019-05-23T23:51:50.367Z,9.39
2019-05-23T23:57:32.879Z,9.18
